マスカット の空港の天気 - METARとTAF

シーブ国際空港 ( OOMS / MCT ) - オマーン マスカット
飛行場実況気象(Metar)
観測時間09/22 20:50 GST (09/22 16:50 UTC)
風向・風速西南西 2m/s
視程10km以上
天気現象
なし
気温32℃
湿度49%
気圧1002hPa
METAROOMS 221650Z 25003KT CAVOK 32/20 Q1002 NOSIG
過去の天気等 Google飛行場航空写真 Wunderground天気予報

過去48時間のMETAR

飛行場予報(TAF)
発表時間: 9/22 15:00 GST (9/22 11:00 UTC)
予報対象時間: 22日16時 GST ~ 23日22時 GST
風向・風速北北東 5m/s
視程8000m
なし
22日19時 GST ~ 22日21時 GST に徐々に
風向・風速西南西 3m/s
23日10時 GST ~ 23日12時 GST に徐々に
風向・風速北 5m/s
TAF OOMS 221100Z 2212/2318 02010KT 8000 NSC
BECMG 2215/2217 24005KT
BECMG 2306/2308 35010KT